createdAt,value
2019-03-04T00:01:22.633Z,49.2
2019-03-04T00:16:37.483Z,49
2019-03-04T00:31:52.354Z,48.8
2019-03-04T00:47:01.383Z,49
2019-03-04T01:02:21.998Z,50
2019-03-04T01:17:36.810Z,51.1
2019-03-04T01:32:51.675Z,51.3
2019-03-04T01:48:06.544Z,51.4
2019-03-04T02:03:20.797Z,51.3
2019-03-04T02:18:36.053Z,51.6
2019-03-04T02:33:50.918Z,51.5
2019-03-04T02:49:05.831Z,50.9
2019-03-04T03:04:11.511Z,50.8
2019-03-04T03:19:35.173Z,52.5
2019-03-04T03:34:50.981Z,52
2019-03-04T03:50:04.423Z,51.5
2019-03-04T04:05:19.054Z,55.3
2019-03-04T04:20:30.465Z,56.4
2019-03-04T04:35:48.187Z,55
2019-03-04T04:51:02.785Z,52.1
2019-03-04T05:06:17.173Z,49.5
2019-03-04T05:21:22.036Z,45.4
2019-03-04T05:36:46.963Z,43.5
2019-03-04T05:52:02.074Z,42.3
2019-03-04T06:07:17.246Z,41
2019-03-04T06:22:32.498Z,40.5
2019-03-04T06:37:43.175Z,39.2
2019-03-04T06:53:03.330Z,39.4
2019-03-04T07:08:18.749Z,38.4
2019-03-04T07:23:34.016Z,37.5
2019-03-04T07:38:36.598Z,35.8
2019-03-04T07:54:05.312Z,34.4
2019-03-04T08:09:21.267Z,34
2019-03-04T08:24:38.046Z,31.2
2019-03-04T08:39:53.452Z,31.5
2019-03-04T08:55:00.704Z,31.3
2019-03-04T09:10:25.879Z,32.3
2019-03-04T09:25:42.054Z,34.8
2019-03-04T09:40:58.064Z,36.1
2019-03-04T09:56:14.127Z,36.2
2019-03-04T10:11:25.166Z,29
2019-03-04T10:26:48.254Z,23.8
2019-03-04T10:42:04.255Z,23.4
2019-03-04T10:57:21.133Z,24.3
2019-03-04T11:12:23.284Z,22.8
2019-03-04T11:27:53.561Z,21.2
2019-03-04T11:43:11.997Z,20.4
2019-03-04T11:58:29.264Z,18.9
2019-03-04T12:13:46.810Z,17.4
2019-03-04T12:28:53.710Z,17.6
2019-03-04T12:44:21.347Z,18.9
2019-03-04T12:59:37.989Z,20.8
2019-03-04T13:14:54.630Z,21
2019-03-04T13:30:11.389Z,22.5
2019-03-04T13:45:21.372Z,26
2019-03-04T14:00:43.184Z,30.7
2019-03-04T14:15:58.828Z,26.6
2019-03-04T14:31:14.398Z,27.8
2019-03-04T14:46:15.880Z,27.8
2019-03-04T15:01:45.174Z,25.4
2019-03-04T15:17:03.872Z,23.8
2019-03-04T15:32:16.985Z,23.2
2019-03-04T15:47:32.560Z,23.1
2019-03-04T16:02:39.178Z,22
2019-03-04T16:18:04.840Z,21.2
2019-03-04T16:33:20.533Z,23.4
2019-03-04T16:48:36.017Z,24.6
2019-03-04T17:03:51.109Z,42.9
2019-03-04T17:19:00.415Z,44.5
2019-03-04T17:34:19.729Z,45.5
2019-03-04T17:49:33.977Z,46.7
2019-03-04T18:04:48.205Z,45.8
2019-03-04T18:19:50.254Z,63.2
2019-03-04T18:35:15.574Z,72.2
2019-03-04T18:50:28.418Z,71.2
2019-03-04T19:05:41.204Z,71.8
2019-03-04T19:20:54.039Z,70.4
2019-03-04T19:36:02.746Z,70.2
2019-03-04T19:51:21.062Z,66.8
2019-03-04T20:06:33.044Z,68.5
2019-03-04T20:21:45.876Z,67.3
2019-03-04T20:36:47.836Z,63.4
2019-03-04T20:52:11.581Z,60.3
2019-03-04T21:07:24.479Z,58.8
2019-03-04T21:22:37.367Z,57.5
2019-03-04T21:37:50.191Z,57.5
2019-03-04T21:52:58.891Z,56
2019-03-04T22:08:15.775Z,55.4
2019-03-04T22:23:28.603Z,54.8
2019-03-04T22:38:41.445Z,54
2019-03-04T22:53:42.907Z,54
2019-03-04T23:09:06.998Z,53.8
2019-03-04T23:24:19.855Z,53.6
2019-03-04T23:39:32.645Z,53.7
2019-03-04T23:54:45.363Z,53.7
